createdAt,value
2022-12-11T00:00:40.436Z,30.60
2022-12-11T00:03:12.771Z,34.43
2022-12-11T00:05:43.610Z,35.83
2022-12-11T00:08:12.077Z,35.03
2022-12-11T00:10:39.697Z,32.60
2022-12-11T00:13:07.040Z,30.27
2022-12-11T00:15:34.370Z,32.00
2022-12-11T00:18:01.767Z,31.70
2022-12-11T00:20:29.180Z,30.30
2022-12-11T00:22:56.533Z,31.10
2022-12-11T00:25:23.903Z,30.50
2022-12-11T00:27:51.219Z,29.10
2022-12-11T00:30:18.700Z,30.83
2022-12-11T00:32:46.041Z,32.47
2022-12-11T00:35:16.265Z,29.60
2022-12-11T00:37:43.909Z,29.30
2022-12-11T00:40:11.518Z,27.37
2022-12-11T00:42:38.959Z,27.90
2022-12-11T00:45:06.907Z,25.73
2022-12-11T00:47:34.356Z,24.97
2022-12-11T00:50:01.688Z,24.77
2022-12-11T00:52:29.031Z,26.30
2022-12-11T00:54:56.366Z,27.53
2022-12-11T00:57:23.673Z,27.73
2022-12-11T00:59:51.151Z,28.53
2022-12-11T01:02:18.495Z,28.00
2022-12-11T01:04:45.913Z,28.43
2022-12-11T01:07:13.710Z,30.93
2022-12-11T01:09:59.829Z,29.03
2022-12-11T01:12:28.599Z,28.33
2022-12-11T01:14:55.972Z,27.97
2022-12-11T01:17:23.294Z,29.27
2022-12-11T01:19:50.639Z,29.63
2022-12-11T01:22:17.940Z,27.30
2022-12-11T01:24:45.306Z,26.83
2022-12-11T01:27:12.746Z,27.03
2022-12-11T01:29:40.203Z,28.07
2022-12-11T01:32:07.685Z,28.13
2022-12-11T01:34:35.016Z,26.53
2022-12-11T01:37:02.415Z,29.03
2022-12-11T01:39:29.788Z,27.33
2022-12-11T01:41:58.592Z,27.63
2022-12-11T01:44:25.909Z,29.47
2022-12-11T01:46:53.764Z,27.80
2022-12-11T01:49:24.966Z,26.60
2022-12-11T01:51:56.136Z,26.00
2022-12-11T01:54:26.005Z,27.77
2022-12-11T01:56:56.035Z,25.80
2022-12-11T01:59:27.135Z,26.07
2022-12-11T02:02:01.093Z,26.37
2022-12-11T02:04:29.647Z,25.40
2022-12-11T02:06:57.071Z,25.40
2022-12-11T02:09:27.780Z,24.83
2022-12-11T02:12:01.176Z,25.67
2022-12-11T02:15:00.556Z,25.17
2022-12-11T02:17:41.975Z,25.27
2022-12-11T02:20:30.329Z,24.13
2022-12-11T02:23:35.979Z,25.47
2022-12-11T02:26:12.464Z,23.43
2022-12-11T02:28:46.245Z,23.40
2022-12-11T02:31:32.213Z,22.30
2022-12-11T02:34:23.589Z,22.53
2022-12-11T02:36:59.693Z,22.27
2022-12-11T02:39:29.347Z,24.07
2022-12-11T02:41:56.991Z,23.83
2022-12-11T02:44:33.389Z,22.60
2022-12-11T02:47:03.177Z,21.97
2022-12-11T02:49:32.208Z,21.63
2022-12-11T02:52:03.479Z,23.40
2022-12-11T02:54:34.154Z,21.17
2022-12-11T02:57:11.860Z,23.17
2022-12-11T02:59:42.694Z,21.13
2022-12-11T03:02:12.542Z,19.70
2022-12-11T03:04:41.816Z,20.07
2022-12-11T03:07:23.583Z,20.77
2022-12-11T03:09:51.381Z,18.97
2022-12-11T03:12:27.232Z,21.27
2022-12-11T03:14:55.348Z,19.00
2022-12-11T03:17:27.306Z,19.50
2022-12-11T03:20:09.056Z,20.17
2022-12-11T03:22:47.355Z,18.33
2022-12-11T03:25:46.761Z,17.40
2022-12-11T03:28:19.504Z,18.30
2022-12-11T03:30:51.419Z,18.03
2022-12-11T03:33:29.581Z,17.70
2022-12-11T03:36:03.965Z,18.00
2022-12-11T03:38:38.899Z,17.07
2022-12-11T03:41:08.452Z,17.17
2022-12-11T03:43:37.000Z,17.83
2022-12-11T03:46:05.594Z,18.57
2022-12-11T03:48:36.669Z,17.57
2022-12-11T03:51:08.461Z,18.97
2022-12-11T03:53:37.192Z,18.03
2022-12-11T03:56:08.416Z,18.53
2022-12-11T03:58:36.097Z,17.60
2022-12-11T04:01:03.544Z,18.20
2022-12-11T04:03:30.977Z,17.67
2022-12-11T04:05:58.331Z,21.17
2022-12-11T04:08:25.845Z,17.27
2022-12-11T04:11:13.445Z,19.67
2022-12-11T04:13:41.869Z,18.13
2022-12-11T04:16:09.389Z,19.27
2022-12-11T04:18:55.333Z,17.90
2022-12-11T04:21:41.115Z,18.63
2022-12-11T04:24:15.585Z,19.63
2022-12-11T04:26:44.724Z,19.17
2022-12-11T04:29:13.054Z,19.27
2022-12-11T04:31:40.441Z,19.47
2022-12-11T04:34:07.839Z,18.20
2022-12-11T04:36:35.795Z,19.37
2022-12-11T04:39:04.692Z,20.37
2022-12-11T04:41:32.187Z,17.87
2022-12-11T04:43:59.584Z,19.33
2022-12-11T04:46:27.030Z,20.40
2022-12-11T04:48:57.581Z,17.80
2022-12-11T04:51:26.513Z,16.90
2022-12-11T04:53:54.431Z,17.80
2022-12-11T04:56:21.909Z,17.67
2022-12-11T04:58:49.409Z,16.43
2022-12-11T05:01:19.215Z,18.60
2022-12-11T05:03:47.422Z,18.10
2022-12-11T05:06:14.955Z,18.67
2022-12-11T05:08:43.476Z,18.40
2022-12-11T05:11:14.083Z,18.63
2022-12-11T05:13:41.721Z,18.70
2022-12-11T05:16:11.832Z,19.10
2022-12-11T05:18:39.411Z,18.43
2022-12-11T05:21:09.857Z,18.03
2022-12-11T05:23:37.984Z,17.80
2022-12-11T05:26:08.853Z,18.50
2022-12-11T05:28:38.805Z,17.63
2022-12-11T05:31:09.347Z,16.57
2022-12-11T05:33:36.835Z,18.23
2022-12-11T05:36:04.628Z,19.90
2022-12-11T05:38:32.116Z,18.40
2022-12-11T05:41:01.957Z,17.93
2022-12-11T05:43:31.601Z,20.60
2022-12-11T05:46:10.279Z,16.97
2022-12-11T05:48:38.683Z,18.63
2022-12-11T05:51:07.055Z,17.47
2022-12-11T05:53:36.201Z,16.70
2022-12-11T05:56:06.246Z,18.33
2022-12-11T05:58:35.222Z,16.33
2022-12-11T06:01:07.781Z,15.23
2022-12-11T06:03:35.159Z,17.43
2022-12-11T06:06:04.262Z,18.13
2022-12-11T06:08:32.181Z,16.13
2022-12-11T06:10:59.840Z,15.97
2022-12-11T06:13:27.469Z,15.43
2022-12-11T06:15:54.876Z,16.57
2022-12-11T06:18:22.484Z,15.87
2022-12-11T06:20:49.796Z,19.23
2022-12-11T06:23:17.187Z,20.33
2022-12-11T06:25:44.507Z,17.77
2022-12-11T06:28:13.099Z,17.47
2022-12-11T06:30:40.592Z,14.67
2022-12-11T06:33:07.930Z,15.13
2022-12-11T06:35:41.764Z,15.23
2022-12-11T06:38:10.838Z,15.33
2022-12-11T06:40:38.411Z,14.57
2022-12-11T06:43:05.789Z,15.90
2022-12-11T06:45:33.173Z,13.70
2022-12-11T06:48:00.672Z,14.23
2022-12-11T06:50:28.028Z,13.77
2022-12-11T06:52:58.729Z,15.97
2022-12-11T06:55:26.073Z,15.10
2022-12-11T06:57:53.413Z,14.53
2022-12-11T07:00:20.930Z,14.30
2022-12-11T07:02:50.367Z,15.17
2022-12-11T07:05:17.788Z,13.93
2022-12-11T07:07:45.219Z,14.73
2022-12-11T07:10:12.655Z,14.13
2022-12-11T07:12:40.131Z,13.57
2022-12-11T07:15:08.623Z,13.67
2022-12-11T07:17:36.467Z,13.47
2022-12-11T07:20:04.907Z,13.97
2022-12-11T07:22:32.467Z,12.97
2022-12-11T07:24:59.939Z,13.17
2022-12-11T07:27:28.360Z,13.30
2022-12-11T07:29:55.879Z,13.87
2022-12-11T07:32:23.306Z,13.00
2022-12-11T07:34:52.070Z,11.93
2022-12-11T07:37:19.601Z,13.07
2022-12-11T07:39:48.967Z,13.53
2022-12-11T07:42:16.409Z,11.83
2022-12-11T07:44:43.842Z,12.30
2022-12-11T07:47:11.206Z,11.73
2022-12-11T07:49:38.586Z,12.77
2022-12-11T07:52:05.908Z,12.97
2022-12-11T07:54:33.249Z,12.30
2022-12-11T07:57:00.592Z,13.67
2022-12-11T07:59:27.984Z,12.40
2022-12-11T08:01:55.462Z,11.33
2022-12-11T08:04:22.819Z,11.93
2022-12-11T08:06:50.193Z,13.03
2022-12-11T08:09:21.311Z,11.97
2022-12-11T08:11:52.233Z,12.07
2022-12-11T08:14:20.714Z,10.43
2022-12-11T08:16:48.336Z,11.50
2022-12-11T08:19:16.277Z,10.97
2022-12-11T08:21:43.963Z,10.87
2022-12-11T08:24:11.555Z,10.37
2022-12-11T08:26:39.382Z,10.23
2022-12-11T08:29:06.704Z,10.80
2022-12-11T08:31:34.250Z,10.43
2022-12-11T08:34:01.924Z,11.50
2022-12-11T08:36:29.368Z,11.37
2022-12-11T08:38:57.176Z,10.63
2022-12-11T08:41:30.385Z,9.90
2022-12-11T08:44:00.273Z,9.93
2022-12-11T08:46:32.830Z,9.60
2022-12-11T08:49:00.550Z,9.60
2022-12-11T08:51:29.127Z,9.60
2022-12-11T08:53:58.667Z,10.27
2022-12-11T08:56:27.259Z,8.87
2022-12-11T08:58:54.668Z,8.73
2022-12-11T09:01:24.351Z,9.70
2022-12-11T09:03:53.217Z,10.17
2022-12-11T09:06:23.124Z,10.33
2022-12-11T09:08:53.299Z,10.30
2022-12-11T09:11:24.755Z,9.73
2022-12-11T09:13:53.205Z,10.30
2022-12-11T09:16:23.590Z,11.17
2022-12-11T09:18:52.016Z,11.40
2022-12-11T09:21:22.874Z,10.00
2022-12-11T09:23:53.623Z,10.17
2022-12-11T09:26:21.545Z,10.47
2022-12-11T09:28:53.088Z,10.30
2022-12-11T09:31:24.357Z,9.33
2022-12-11T09:33:56.654Z,12.33
2022-12-11T09:36:24.422Z,10.73
2022-12-11T09:38:52.367Z,9.83
2022-12-11T09:41:22.774Z,10.70
2022-12-11T09:44:08.433Z,10.57
2022-12-11T09:46:36.569Z,10.93
2022-12-11T09:49:11.498Z,12.87
2022-12-11T09:51:58.368Z,12.10
2022-12-11T09:54:26.054Z,11.03
2022-12-11T09:57:19.753Z,10.23
2022-12-11T10:00:11.450Z,10.10
2022-12-11T10:03:12.636Z,10.93
2022-12-11T10:06:04.249Z,9.27
2022-12-11T10:08:42.720Z,9.07
2022-12-11T10:11:23.162Z,10.47
2022-12-11T10:14:04.713Z,10.37
2022-12-11T10:16:37.580Z,10.00
2022-12-11T10:19:05.311Z,9.70
2022-12-11T10:21:40.200Z,10.00
2022-12-11T10:24:42.172Z,10.93
2022-12-11T10:27:27.587Z,9.43
2022-12-11T10:30:01.159Z,11.03
2022-12-11T10:32:56.760Z,10.60
2022-12-11T10:35:50.448Z,8.70
2022-12-11T10:38:20.614Z,9.73
2022-12-11T10:40:52.964Z,10.00
2022-12-11T10:43:20.337Z,9.17
2022-12-11T10:45:55.151Z,9.80
2022-12-11T10:48:23.166Z,9.97
2022-12-11T10:51:00.279Z,9.57
2022-12-11T10:53:29.117Z,9.70
2022-12-11T10:55:58.598Z,10.00
2022-12-11T10:58:29.520Z,10.00
2022-12-11T11:01:09.541Z,9.67
2022-12-11T11:03:59.828Z,10.27
2022-12-11T11:06:27.437Z,9.47
2022-12-11T11:08:57.847Z,10.27
2022-12-11T11:11:29.624Z,10.30
2022-12-11T11:14:12.253Z,10.77
2022-12-11T11:16:41.440Z,9.90
2022-12-11T11:19:22.218Z,9.63
2022-12-11T11:21:54.095Z,10.53
2022-12-11T11:24:33.659Z,10.03
2022-12-11T11:27:16.760Z,9.40
2022-12-11T11:29:47.747Z,9.90
2022-12-11T11:32:33.345Z,9.90
2022-12-11T11:35:12.790Z,9.73
2022-12-11T11:37:45.255Z,10.00
2022-12-11T11:40:12.666Z,9.73
2022-12-11T11:42:49.517Z,10.10
2022-12-11T11:45:26.707Z,9.07
2022-12-11T11:48:11.717Z,10.13
2022-12-11T11:50:44.879Z,10.40
2022-12-11T11:53:33.115Z,10.00
2022-12-11T11:56:28.290Z,10.40
2022-12-11T11:59:19.243Z,10.07
2022-12-11T12:01:47.614Z,9.27
2022-12-11T12:04:15.117Z,9.37
2022-12-11T12:07:08.108Z,9.87
2022-12-11T12:09:41.026Z,10.27
2022-12-11T12:12:19.419Z,8.47
2022-12-11T12:15:12.264Z,9.13
2022-12-11T12:17:55.680Z,9.10
2022-12-11T12:20:55.025Z,10.13
2022-12-11T12:23:58.485Z,9.70
2022-12-11T12:26:37.335Z,9.50
2022-12-11T12:29:10.753Z,8.00
2022-12-11T12:31:46.876Z,9.00
2022-12-11T12:34:17.378Z,8.37
2022-12-11T12:37:09.271Z,9.07
2022-12-11T12:39:39.501Z,8.00
2022-12-11T12:42:13.045Z,8.00
2022-12-11T12:45:13.456Z,7.23
2022-12-11T12:47:46.664Z,8.37
2022-12-11T12:50:22.797Z,8.63
2022-12-11T12:52:52.982Z,7.60
2022-12-11T12:55:32.127Z,8.80
2022-12-11T12:58:02.276Z,7.83
2022-12-11T13:00:39.064Z,7.47
2022-12-11T13:03:29.264Z,8.43
2022-12-11T13:06:01.218Z,7.67
2022-12-11T13:08:39.959Z,7.97
2022-12-11T13:11:10.465Z,8.23
2022-12-11T13:14:03.940Z,8.67
2022-12-11T13:16:39.990Z,7.43
2022-12-11T13:19:25.716Z,8.67
2022-12-11T13:22:11.119Z,11.00
2022-12-11T13:24:48.955Z,8.83
2022-12-11T13:27:35.101Z,8.83
2022-12-11T13:30:25.555Z,9.27
2022-12-11T13:33:14.194Z,8.30
2022-12-11T13:35:41.658Z,12.10
2022-12-11T13:38:20.966Z,15.87
2022-12-11T13:40:54.454Z,15.67
2022-12-11T13:43:31.539Z,15.73
2022-12-11T13:46:05.532Z,16.53
2022-12-11T13:48:39.910Z,14.40
2022-12-11T13:51:07.931Z,14.93
2022-12-11T13:53:35.404Z,17.77
2022-12-11T13:56:08.283Z,15.83
2022-12-11T13:58:38.839Z,14.30
2022-12-11T14:01:29.108Z,14.70
2022-12-11T14:04:10.838Z,14.43
2022-12-11T14:06:40.079Z,15.77
2022-12-11T14:09:09.249Z,15.97
2022-12-11T14:11:41.682Z,15.57
2022-12-11T14:14:35.369Z,14.30
2022-12-11T14:17:03.070Z,14.43
2022-12-11T14:19:30.879Z,15.40
2022-12-11T14:22:03.969Z,14.63
2022-12-11T14:24:32.084Z,16.10
2022-12-11T14:27:00.218Z,14.57
2022-12-11T14:29:30.540Z,15.67
2022-12-11T14:32:04.071Z,16.63
2022-12-11T14:34:44.436Z,15.10
2022-12-11T14:37:15.852Z,15.87
2022-12-11T14:40:07.754Z,17.20
2022-12-11T14:42:44.074Z,14.97
2022-12-11T14:45:46.822Z,11.80
2022-12-11T14:48:28.685Z,10.37
2022-12-11T14:50:59.825Z,12.90
2022-12-11T14:53:35.185Z,14.63
2022-12-11T14:56:06.841Z,17.50
2022-12-11T14:58:41.048Z,15.93
2022-12-11T15:01:29.239Z,17.27
2022-12-11T15:04:22.211Z,19.37
2022-12-11T15:06:51.909Z,15.33
2022-12-11T15:09:41.681Z,17.20
2022-12-11T15:12:16.509Z,15.03
2022-12-11T15:15:07.751Z,17.97
2022-12-11T15:17:37.603Z,11.87
2022-12-11T15:20:11.793Z,12.30
2022-12-11T15:22:44.540Z,12.30
2022-12-11T15:25:27.340Z,18.17
2022-12-11T15:27:58.395Z,24.63
2022-12-11T15:30:33.226Z,17.07
2022-12-11T15:33:03.511Z,19.47
2022-12-11T15:35:32.605Z,17.50
2022-12-11T15:38:00.670Z,14.67
2022-12-11T15:40:28.951Z,20.83
2022-12-11T15:42:58.113Z,20.30
2022-12-11T15:45:28.553Z,16.90
2022-12-11T15:47:59.898Z,17.70
2022-12-11T15:50:29.616Z,15.37
2022-12-11T15:52:57.757Z,17.90
2022-12-11T15:55:30.109Z,16.73
2022-12-11T15:58:01.302Z,20.53
2022-12-11T16:00:28.888Z,16.90
2022-12-11T16:02:57.562Z,14.87
2022-12-11T16:05:26.416Z,13.87
2022-12-11T16:07:54.826Z,14.83
2022-12-11T16:10:24.049Z,13.93
2022-12-11T16:12:52.045Z,14.93
2022-12-11T16:15:23.490Z,16.47
2022-12-11T16:18:23.913Z,14.07
2022-12-11T16:20:55.350Z,15.93
2022-12-11T16:23:26.486Z,14.40
2022-12-11T16:25:54.246Z,13.17
2022-12-11T16:28:22.046Z,14.90
2022-12-11T16:30:50.410Z,14.70
2022-12-11T16:33:19.454Z,14.37
2022-12-11T16:35:47.738Z,12.57
2022-12-11T16:38:15.254Z,13.10
2022-12-11T16:40:43.154Z,15.40
2022-12-11T16:43:11.405Z,21.27
2022-12-11T16:45:39.706Z,17.70
2022-12-11T16:48:07.504Z,12.93
2022-12-11T16:50:36.241Z,12.73
2022-12-11T16:53:04.036Z,14.30
2022-12-11T16:55:31.968Z,13.83
2022-12-11T16:57:59.698Z,11.63
2022-12-11T17:00:27.297Z,12.97
2022-12-11T17:02:55.533Z,13.97
2022-12-11T17:05:25.072Z,14.33
2022-12-11T17:07:52.827Z,14.33
2022-12-11T17:10:20.756Z,14.47
2022-12-11T17:12:48.626Z,14.70
2022-12-11T17:15:16.356Z,16.17
2022-12-11T17:17:45.129Z,15.30
2022-12-11T17:20:12.597Z,16.60
2022-12-11T17:22:41.085Z,17.07
2022-12-11T17:25:09.449Z,16.70
2022-12-11T17:27:37.761Z,19.13
2022-12-11T17:30:06.041Z,19.57
2022-12-11T17:32:33.923Z,19.27
2022-12-11T17:35:01.930Z,18.27
2022-12-11T17:37:30.819Z,17.97
2022-12-11T17:39:58.809Z,17.90
2022-12-11T17:42:26.697Z,20.70
2022-12-11T17:44:55.665Z,18.87
2022-12-11T17:47:23.671Z,18.63
2022-12-11T17:49:51.474Z,18.67
2022-12-11T17:52:19.665Z,16.60
2022-12-11T17:54:49.564Z,18.03
2022-12-11T17:57:17.373Z,17.30
2022-12-11T17:59:45.295Z,16.83
2022-12-11T18:02:13.406Z,18.00
2022-12-11T18:04:41.426Z,17.37
2022-12-11T18:07:09.418Z,17.57
2022-12-11T18:09:40.902Z,18.40
2022-12-11T18:12:09.649Z,19.77
2022-12-11T18:14:38.361Z,18.10
2022-12-11T18:17:06.937Z,19.57
2022-12-11T18:19:34.999Z,19.50
2022-12-11T18:22:03.114Z,18.97
2022-12-11T18:24:32.373Z,21.27
2022-12-11T18:27:00.665Z,21.07
2022-12-11T18:29:29.203Z,21.40
2022-12-11T18:31:58.373Z,22.13
2022-12-11T18:34:27.297Z,21.30
2022-12-11T18:36:55.899Z,25.70
2022-12-11T18:39:24.159Z,22.70
2022-12-11T18:42:24.006Z,23.10
2022-12-11T18:44:43.658Z,22.93
2022-12-11T18:47:11.846Z,23.63
2022-12-11T18:49:39.915Z,21.63
2022-12-11T18:52:07.905Z,23.27
2022-12-11T18:54:37.045Z,23.80
2022-12-11T18:57:05.385Z,21.00
2022-12-11T18:59:34.377Z,22.47
2022-12-11T19:02:02.752Z,24.90
2022-12-11T19:04:31.299Z,24.77
2022-12-11T19:07:01.381Z,25.80
2022-12-11T19:09:32.813Z,26.10
2022-12-11T19:12:05.718Z,25.83
2022-12-11T19:14:34.652Z,37.07
2022-12-11T19:17:03.390Z,38.57
2022-12-11T19:19:33.014Z,27.23
2022-12-11T19:22:01.127Z,22.93
2022-12-11T19:24:29.268Z,22.97
2022-12-11T19:26:58.170Z,24.60
2022-12-11T19:29:28.853Z,22.67
2022-12-11T19:31:57.091Z,21.23
2022-12-11T19:34:26.051Z,20.47
2022-12-11T19:36:55.934Z,21.77
2022-12-11T19:39:26.040Z,22.07
2022-12-11T19:41:54.743Z,20.73
2022-12-11T19:44:24.346Z,21.67
2022-12-11T19:46:55.082Z,19.93
2022-12-11T19:49:26.475Z,20.33
2022-12-11T19:51:54.841Z,22.07
2022-12-11T19:54:29.394Z,20.77
2022-12-11T19:56:57.501Z,20.57
2022-12-11T19:59:26.151Z,18.87
2022-12-11T20:01:56.315Z,18.77
2022-12-11T20:04:25.389Z,18.63
2022-12-11T20:06:53.779Z,19.50
2022-12-11T20:09:22.077Z,18.40
2022-12-11T20:11:51.484Z,18.07
2022-12-11T20:14:25.018Z,19.37
2022-12-11T20:17:12.998Z,18.03
2022-12-11T20:19:42.879Z,18.53
2022-12-11T20:22:11.258Z,20.57
2022-12-11T20:24:39.563Z,17.73
2022-12-11T20:27:09.865Z,17.77
2022-12-11T20:29:39.425Z,19.67
2022-12-11T20:32:07.973Z,18.97
2022-12-11T20:34:38.217Z,18.33
2022-12-11T20:37:06.903Z,18.93
2022-12-11T20:39:36.171Z,19.73
2022-12-11T20:42:05.590Z,21.53
2022-12-11T20:44:35.310Z,17.57
2022-12-11T20:47:03.416Z,17.20
2022-12-11T20:49:31.224Z,18.23
2022-12-11T20:52:00.267Z,18.47
2022-12-11T20:54:28.652Z,19.57
2022-12-11T20:56:57.440Z,18.23
2022-12-11T20:59:26.691Z,19.07
2022-12-11T21:01:54.904Z,18.67
2022-12-11T21:04:23.901Z,19.23
2022-12-11T21:07:01.309Z,19.87
2022-12-11T21:09:29.567Z,18.50
2022-12-11T21:12:00.148Z,20.27
2022-12-11T21:14:29.242Z,20.33
2022-12-11T21:16:56.888Z,19.40
2022-12-11T21:19:26.681Z,21.10
2022-12-11T21:21:54.795Z,19.20
2022-12-11T21:24:27.636Z,18.77
2022-12-11T21:26:58.769Z,18.40
2022-12-11T21:29:29.293Z,18.90
2022-12-11T21:31:57.270Z,20.17
2022-12-11T21:34:25.852Z,20.00
2022-12-11T21:36:56.785Z,19.57
2022-12-11T21:39:26.687Z,20.23
2022-12-11T21:41:54.206Z,20.33
2022-12-11T21:47:09.659Z,18.37
2022-12-11T21:49:37.994Z,19.53
2022-12-11T21:52:05.689Z,18.70
2022-12-11T21:54:33.026Z,18.80
2022-12-11T21:57:00.463Z,18.40
2022-12-11T21:59:28.925Z,19.80
2022-12-11T22:01:56.675Z,18.77
2022-12-11T22:04:24.293Z,19.23
2022-12-11T22:06:51.668Z,18.50
2022-12-11T22:09:19.233Z,18.90
2022-12-11T22:11:47.812Z,19.97
2022-12-11T22:14:17.863Z,19.43
2022-12-11T22:16:45.741Z,20.03
2022-12-11T22:19:13.594Z,19.80
2022-12-11T22:21:41.130Z,18.93
2022-12-11T22:24:08.707Z,18.27
2022-12-11T22:26:36.273Z,17.80
2022-12-11T22:29:03.697Z,19.47
2022-12-11T22:31:31.065Z,17.80
2022-12-11T22:33:58.458Z,18.50
2022-12-11T22:36:27.169Z,19.37
2022-12-11T22:38:54.940Z,17.80
2022-12-11T22:41:30.678Z,18.40
2022-12-11T22:43:58.549Z,17.03
2022-12-11T22:46:29.165Z,18.17
2022-12-11T22:48:57.901Z,18.33
2022-12-11T22:51:25.354Z,17.10
2022-12-11T22:53:52.684Z,18.43
2022-12-11T22:56:20.278Z,18.30
2022-12-11T22:58:47.685Z,17.63
2022-12-11T23:01:19.242Z,16.20
2022-12-11T23:03:47.372Z,17.63
2022-12-11T23:06:16.391Z,17.10
2022-12-11T23:08:44.115Z,18.03
2022-12-11T23:11:14.436Z,18.50
2022-12-11T23:13:42.665Z,17.90
2022-12-11T23:16:11.036Z,20.30
2022-12-11T23:18:38.776Z,18.70
2022-12-11T23:21:07.115Z,18.70
2022-12-11T23:23:34.568Z,18.77
2022-12-11T23:26:02.737Z,17.33
2022-12-11T23:28:30.173Z,17.37
2022-12-11T23:30:57.567Z,18.03
2022-12-11T23:33:26.490Z,17.90
2022-12-11T23:35:54.872Z,18.57
2022-12-11T23:38:22.501Z,15.67
2022-12-11T23:40:49.983Z,16.20
2022-12-11T23:43:17.377Z,16.13
2022-12-11T23:45:45.760Z,15.17
2022-12-11T23:48:13.687Z,16.47
2022-12-11T23:50:42.614Z,14.53
2022-12-11T23:53:10.558Z,17.33
2022-12-11T23:55:47.031Z,17.07
2022-12-11T23:58:15.201Z,14.73
